Time;durP1;ratioP1;P1;durP2;ratioP2;P2;SDS_P1;SDS_P2;PMS_P1;PMS_P2;Temp;Humidity;BMP_temperature;BMP_pressure;BME280_temperature;BME280_humidity;BME280_pressure;Samples;Min_cycle;Max_cycle;Signal;HPM_P1;HPM_P2
2023/07/20 00:01:52;;;;;;;1.93;1.43;;;14.30;99.90;;;;;;5080376;28;20647;-67
2023/07/20 00:04:19;;;;;;;1.77;1.60;;;14.30;99.90;;;;;;5068410;28;20202;-67
2023/07/20 00:06:47;;;;;;;1.33;1.30;;;14.40;99.90;;;;;;5063322;28;20202;-67
2023/07/20 00:09:14;;;;;;;1.90;1.70;;;14.40;99.90;;;;;;5082912;28;20735;-67
2023/07/20 00:11:41;;;;;;;2.03;1.40;;;14.40;99.90;;;;;;5075595;28;20189;-67
2023/07/20 00:14:08;;;;;;;3.60;1.57;;;14.40;99.90;;;;;;5064069;28;20194;-67
2023/07/20 00:16:35;;;;;;;3.33;1.77;;;14.40;99.90;;;;;;5071396;28;20198;-67
2023/07/20 00:19:01;;;;;;;1.57;1.47;;;14.50;99.90;;;;;;5076683;28;20696;-67
2023/07/20 00:21:28;;;;;;;1.73;1.63;;;14.50;99.90;;;;;;5063562;28;20221;-67
2023/07/20 00:23:56;;;;;;;1.60;1.50;;;14.50;99.90;;;;;;5076745;28;20255;-68
2023/07/20 00:26:23;;;;;;;2.93;2.20;;;14.40;99.90;;;;;;5071540;28;20930;-67
2023/07/20 00:28:51;;;;;;;2.20;1.63;;;14.50;99.90;;;;;;5065992;28;20194;-68
2023/07/20 00:31:20;;;;;;;1.70;1.60;;;14.50;99.90;;;;;;5069603;28;20570;-68
2023/07/20 00:33:47;;;;;;;3.30;1.90;;;14.50;99.90;;;;;;5080027;28;20182;-68
2023/07/20 00:36:14;;;;;;;2.50;1.70;;;14.50;99.90;;;;;;5072350;28;20570;-66
2023/07/20 00:38:43;;;;;;;2.80;1.60;;;14.50;99.90;;;;;;5058491;28;20233;-68
2023/07/20 00:41:12;;;;;;;3.30;2.33;;;14.40;99.90;;;;;;5073331;28;20217;-66
2023/07/20 00:43:40;;;;;;;3.10;2.00;;;14.40;99.90;;;;;;5077887;28;20186;-66
2023/07/20 00:46:08;;;;;;;3.50;2.40;;;14.40;99.90;;;;;;5060743;28;20218;-66
2023/07/20 00:48:36;;;;;;;3.63;2.33;;;14.40;99.90;;;;;;5076888;28;20186;-67
2023/07/20 00:51:03;;;;;;;3.00;2.30;;;14.40;99.90;;;;;;5073544;28;20224;-66
2023/07/20 00:53:31;;;;;;;3.13;2.40;;;14.40;99.90;;;;;;5054099;28;20945;-66
2023/07/20 00:55:58;;;;;;;3.50;2.10;;;14.50;99.90;;;;;;5075373;28;20193;-67
2023/07/20 00:58:26;;;;;;;2.87;2.40;;;14.50;99.90;;;;;;5080517;28;20194;-66
2023/07/20 01:00:54;;;;;;;3.90;2.57;;;14.50;99.90;;;;;;5068262;28;20221;-67
2023/07/20 01:03:21;;;;;;;2.87;2.40;;;14.50;99.90;;;;;;5069517;28;20263;-67
2023/07/20 01:05:58;;;;;;;2.50;2.27;;;14.50;99.90;;;;;;5073394;28;20198;-67
2023/07/20 01:08:33;;;;;;;3.50;2.50;;;14.50;99.90;;;;;;5059580;28;20184;-67
2023/07/20 01:11:05;;;;;;;3.47;2.13;;;14.40;99.90;;;;;;5075604;28;20259;-68
2023/07/20 01:13:34;;;;;;;2.93;2.70;;;14.40;99.90;;;;;;5077538;28;20221;-69
2023/07/20 01:16:02;;;;;;;3.10;2.67;;;14.40;99.90;;;;;;5071185;28;20206;-68
2023/07/20 01:18:29;;;;;;;3.77;2.80;;;14.40;99.90;;;;;;5072766;28;20205;-68
2023/07/20 01:21:02;;;;;;;2.93;2.63;;;14.40;99.90;;;;;;5068127;28;20222;-68
2023/07/20 01:24:04;;;;;;;3.03;2.80;;;14.40;99.90;;;;;;5055050;28;20201;-68
2023/07/20 01:26:48;;;;;;;4.63;2.87;;;14.40;99.90;;;;;;5077329;28;20201;-67
2023/07/20 01:29:33;;;;;;;4.43;2.90;;;14.30;99.90;;;;;;5080578;28;20210;-67
2023/07/20 01:32:07;;;;;;;5.83;3.03;;;14.30;99.90;;;;;;5063847;28;20189;-68
2023/07/20 01:34:36;;;;;;;6.03;3.80;;;14.30;99.90;;;;;;5060530;28;21035;-67
2023/07/20 01:37:06;;;;;;;3.83;3.23;;;14.30;99.90;;;;;;5063981;28;20197;-68
2023/07/20 01:39:34;;;;;;;4.37;3.37;;;14.30;99.90;;;;;;5059638;28;22154;-68
2023/07/20 01:42:01;;;;;;;4.93;3.17;;;14.30;99.90;;;;;;5084045;28;20217;-68
2023/07/20 01:44:30;;;;;;;4.03;3.70;;;14.30;99.90;;;;;;5083548;28;20186;-68
2023/07/20 01:46:56;;;;;;;3.50;3.30;;;14.30;99.90;;;;;;5090239;27;20230;-67
2023/07/20 01:49:25;;;;;;;3.93;3.63;;;14.30;99.90;;;;;;5064099;28;20633;-67
2023/07/20 01:51:51;;;;;;;4.30;3.40;;;14.30;99.90;;;;;;5068253;28;21104;-67
2023/07/20 01:54:18;;;;;;;5.53;3.37;;;14.30;99.90;;;;;;5077557;28;20198;-67
2023/07/20 01:56:46;;;;;;;4.60;3.80;;;14.30;99.90;;;;;;5069112;28;20207;-67
2023/07/20 01:59:13;;;;;;;5.53;3.67;;;14.30;99.90;;;;;;5084996;28;20190;-67
2023/07/20 02:01:40;;;;;;;4.70;3.87;;;14.30;99.90;;;;;;5079067;28;20216;-67
2023/07/20 02:04:07;;;;;;;4.40;4.00;;;14.30;99.90;;;;;;5054444;28;20253;-67
2023/07/20 02:06:35;;;;;;;7.10;4.03;;;14.30;99.90;;;;;;5074493;28;20953;-67
2023/07/20 02:09:02;;;;;;;4.77;4.37;;;14.30;99.90;;;;;;5074267;28;20221;-68
2023/07/20 02:11:32;;;;;;;6.10;4.50;;;14.30;99.90;;;;;;5062129;28;20976;-68
2023/07/20 02:13:58;;;;;;;4.90;4.17;;;14.20;99.90;;;;;;5074942;28;20210;-68
2023/07/20 02:16:25;;;;;;;4.50;4.03;;;14.20;99.90;;;;;;5076298;28;20220;-68
2023/07/20 02:18:53;;;;;;;5.20;4.73;;;14.20;99.90;;;;;;5064138;28;20206;-68
2023/07/20 02:21:20;;;;;;;4.53;4.13;;;14.20;99.90;;;;;;5082371;28;20218;-66
2023/07/20 02:23:48;;;;;;;5.47;4.07;;;14.20;99.90;;;;;;5072336;28;21234;-67
2023/07/20 02:26:15;;;;;;;6.60;5.27;;;14.20;99.90;;;;;;5083134;28;20194;-67
2023/07/20 02:28:42;;;;;;;6.30;4.77;;;14.30;99.90;;;;;;5080769;28;20827;-68
2023/07/20 02:31:09;;;;;;;5.63;4.83;;;14.30;99.90;;;;;;5076022;28;20217;-67
2023/07/20 02:33:35;;;;;;;5.03;4.63;;;14.20;99.90;;;;;;5077566;28;20190;-67
2023/07/20 02:36:02;;;;;;;5.00;4.60;;;14.20;99.90;;;;;;5069133;28;20214;-68
2023/07/20 02:38:30;;;;;;;5.13;4.73;;;14.20;99.90;;;;;;5075237;28;20563;-67
2023/07/20 02:40:58;;;;;;;5.27;4.80;;;14.10;99.90;;;;;;5079037;28;20210;-68
2023/07/20 02:43:25;;;;;;;6.83;5.23;;;14.20;99.90;;;;;;5061295;28;20218;-68
2023/07/20 02:45:52;;;;;;;5.87;5.27;;;14.10;99.90;;;;;;5075397;28;20245;-68
2023/07/20 02:48:18;;;;;;;6.63;5.57;;;14.10;99.90;;;;;;5082892;28;20200;-67
2023/07/20 02:50:45;;;;;;;9.80;6.53;;;14.10;99.90;;;;;;5072472;28;20201;-67
2023/07/20 02:53:12;;;;;;;6.13;5.63;;;14.10;99.90;;;;;;5085032;28;20743;-67
2023/07/20 02:55:39;;;;;;;7.67;6.23;;;14.10;99.90;;;;;;5070648;28;20538;-68
2023/07/20 02:58:07;;;;;;;7.03;6.30;;;14.10;99.90;;;;;;5078995;28;20190;-69
2023/07/20 03:00:34;;;;;;;7.10;5.63;;;14.10;99.90;;;;;;5056844;28;20234;-69
2023/07/20 03:03:02;;;;;;;6.13;5.63;;;14.10;99.90;;;;;;5085152;28;20920;-69
2023/07/20 03:05:28;;;;;;;7.00;5.40;;;14.10;99.90;;;;;;5071378;28;20190;-68
2023/07/20 03:07:56;;;;;;;6.60;6.00;;;14.10;99.90;;;;;;5082502;28;20764;-69
2023/07/20 03:10:23;;;;;;;6.43;5.83;;;14.10;99.90;;;;;;5068344;28;20214;-68
2023/07/20 03:12:50;;;;;;;6.80;6.10;;;14.10;99.90;;;;;;5075271;28;20174;-68
2023/07/20 03:15:18;;;;;;;6.83;6.13;;;14.10;99.90;;;;;;5064369;28;20202;-68
2023/07/20 03:17:45;;;;;;;8.13;6.60;;;14.10;99.90;;;;;;5083205;28;20193;-68
2023/07/20 03:20:12;;;;;;;8.10;6.07;;;14.10;99.90;;;;;;5085278;28;20706;-69
2023/07/20 03:22:41;;;;;;;6.87;6.17;;;14.10;99.90;;;;;;5084724;28;20210;-69
2023/07/20 03:25:08;;;;;;;6.83;5.67;;;14.20;99.90;;;;;;5070994;28;20197;-68
2023/07/20 03:27:35;;;;;;;5.93;5.40;;;14.10;99.90;;;;;;5073075;28;20178;-69
2023/07/20 03:30:03;;;;;;;6.30;5.80;;;14.10;99.90;;;;;;5065792;28;20295;-68
2023/07/20 03:32:31;;;;;;;6.43;5.83;;;14.10;99.90;;;;;;5078637;28;20204;-68
2023/07/20 03:34:58;;;;;;;6.13;5.63;;;14.00;99.90;;;;;;5073614;28;20221;-68
2023/07/20 03:37:25;;;;;;;6.63;6.03;;;14.10;99.90;;;;;;5068351;28;20189;-69
2023/07/20 03:39:52;;;;;;;6.37;5.87;;;14.10;99.90;;;;;;5074925;28;20222;-68
2023/07/20 03:42:19;;;;;;;7.63;6.83;;;14.10;99.90;;;;;;5076912;28;20212;-68
2023/07/20 03:44:46;;;;;;;6.50;6.00;;;14.10;99.90;;;;;;5083015;28;20235;-69
2023/07/20 03:47:12;;;;;;;5.83;5.33;;;14.10;99.90;;;;;;5051338;28;20237;-68
2023/07/20 03:49:41;;;;;;;6.70;5.33;;;14.10;99.90;;;;;;5070862;28;20229;-68
2023/07/20 03:52:08;;;;;;;5.33;4.83;;;14.10;99.90;;;;;;5065711;28;20213;-68
2023/07/20 03:54:35;;;;;;;6.27;5.77;;;14.10;99.90;;;;;;5064864;28;20204;-69
2023/07/20 03:57:02;;;;;;;6.23;5.63;;;14.10;99.90;;;;;;5058024;28;20292;-69
2023/07/20 03:59:28;;;;;;;5.67;5.17;;;14.00;99.90;;;;;;5081721;28;20237;-69
2023/07/20 04:01:55;;;;;;;5.93;5.20;;;14.00;99.90;;;;;;5060405;28;20218;-68
2023/07/20 04:04:22;;;;;;;5.93;5.17;;;14.00;99.90;;;;;;5082351;28;20213;-69
2023/07/20 04:06:50;;;;;;;5.57;5.07;;;14.00;99.90;;;;;;5072935;28;20240;-68
2023/07/20 04:09:17;;;;;;;5.27;4.87;;;14.00;99.90;;;;;;5046492;28;20215;-69
2023/07/20 04:11:44;;;;;;;6.50;4.77;;;14.00;99.90;;;;;;5073704;28;20205;-68
2023/07/20 04:14:11;;;;;;;4.70;4.30;;;14.00;99.90;;;;;;5071531;28;20201;-69
2023/07/20 04:16:38;;;;;;;4.90;4.50;;;14.00;99.90;;;;;;5054391;28;20206;-69
2023/07/20 04:19:05;;;;;;;5.53;4.70;;;14.00;99.90;;;;;;5082601;28;20198;-68
2023/07/20 04:21:32;;;;;;;5.77;5.27;;;14.10;99.90;;;;;;5064873;28;20259;-68
2023/07/20 04:24:00;;;;;;;5.50;5.10;;;14.10;99.90;;;;;;5060792;28;20229;-69
2023/07/20 04:26:27;;;;;;;6.40;5.73;;;14.00;99.90;;;;;;5059551;28;20705;-69
2023/07/20 04:28:54;;;;;;;5.40;4.90;;;14.00;99.90;;;;;;5074375;28;20205;-69
2023/07/20 04:31:43;;;;;;;5.83;5.23;;;14.00;99.90;;;;;;5080006;28;20308;-69
2023/07/20 04:34:09;;;;;;;5.43;5.00;;;14.00;99.90;;;;;;5076846;28;20809;-69
2023/07/20 04:36:37;;;;;;;5.17;4.67;;;14.00;99.90;;;;;;5072152;28;20201;-69
2023/07/20 04:39:08;;;;;;;8.50;4.53;;;14.00;99.90;;;;;;5049470;28;20228;-68
2023/07/20 04:41:38;;;;;;;4.43;4.03;;;14.00;99.90;;;;;;5072811;28;20229;-69
2023/07/20 04:44:05;;;;;;;5.07;4.67;;;14.00;99.90;;;;;;5060994;28;20228;-67
2023/07/20 04:46:31;;;;;;;4.80;4.37;;;14.10;99.90;;;;;;5081334;28;20607;-68
2023/07/20 04:49:02;;;;;;;4.40;4.00;;;14.10;99.90;;;;;;5048990;28;20243;-68
2023/07/20 04:51:31;;;;;;;4.87;3.93;;;14.20;99.90;;;;;;5076728;28;20220;-69
2023/07/20 04:53:59;;;;;;;3.87;3.57;;;14.20;99.90;;;;;;5061941;28;20681;-68
2023/07/20 04:56:30;;;;;;;4.50;3.50;;;14.20;99.90;;;;;;5069978;28;20203;-68
2023/07/20 04:58:58;;;;;;;3.90;3.43;;;14.10;99.90;;;;;;5054090;28;20202;-68
2023/07/20 05:01:26;;;;;;;3.97;3.67;;;14.20;99.90;;;;;;5077761;28;20213;-68
2023/07/20 05:03:53;;;;;;;3.80;3.40;;;14.20;99.90;;;;;;5058748;28;20786;-67
2023/07/20 05:06:20;;;;;;;4.00;3.60;;;14.20;99.90;;;;;;5075775;28;20563;-68
2023/07/20 05:08:47;;;;;;;3.37;3.17;;;14.20;99.90;;;;;;5072856;28;20256;-67
2023/07/20 05:11:14;;;;;;;3.27;3.00;;;14.30;99.90;;;;;;5071724;28;20231;-68
2023/07/20 05:13:42;;;;;;;3.57;2.30;;;14.30;99.90;;;;;;5059055;28;20201;-68
2023/07/20 05:16:09;;;;;;;6.53;2.97;;;14.30;99.90;;;;;;5070472;28;20202;-68
2023/07/20 05:18:36;;;;;;;2.90;2.53;;;14.30;99.90;;;;;;5074276;28;20194;-68
2023/07/20 05:21:03;;;;;;;2.97;2.77;;;14.30;99.90;;;;;;5054881;28;20239;-68
2023/07/20 05:23:30;;;;;;;2.60;2.40;;;14.40;99.90;;;;;;5068913;28;20233;-68
2023/07/20 05:25:57;;;;;;;3.93;2.40;;;14.40;99.90;;;;;;5065476;28;20208;-67
2023/07/20 05:28:24;;;;;;;3.30;2.40;;;14.40;99.90;;;;;;5079390;28;20190;-67
2023/07/20 05:30:52;;;;;;;3.33;2.43;;;14.40;99.90;;;;;;5063835;28;20225;-67
2023/07/20 05:33:19;;;;;;;2.30;2.10;;;14.50;99.90;;;;;;5077023;28;20190;-68
2023/07/20 05:35:46;;;;;;;3.07;2.13;;;14.50;99.90;;;;;;5071515;28;20198;-68
2023/07/20 05:38:13;;;;;;;2.50;1.97;;;14.60;99.90;;;;;;5058655;28;20202;-68
2023/07/20 05:40:42;;;;;;;1.90;1.80;;;14.60;99.90;;;;;;5076740;28;20251;-67
2023/07/20 05:43:09;;;;;;;2.70;2.50;;;14.70;99.90;;;;;;5045783;28;20282;-68
2023/07/20 05:45:36;;;;;;;3.77;2.00;;;14.70;99.90;;;;;;5063116;28;21215;-68
2023/07/20 05:48:04;;;;;;;3.30;1.83;;;14.70;99.90;;;;;;5070331;28;20914;-68
2023/07/20 05:50:31;;;;;;;2.90;2.03;;;14.80;99.90;;;;;;5073088;28;20269;-68
2023/07/20 05:52:58;;;;;;;1.90;1.70;;;14.80;99.90;;;;;;5056955;28;20426;-68
2023/07/20 05:55:25;;;;;;;3.07;1.70;;;14.90;99.90;;;;;;5067868;28;20856;-68
2023/07/20 05:57:54;;;;;;;2.03;1.60;;;15.00;99.90;;;;;;5054231;28;20209;-67
2023/07/20 06:00:26;;;;;;;2.87;1.70;;;15.00;99.90;;;;;;5077662;28;20232;-68
2023/07/20 06:02:53;;;;;;;4.03;2.23;;;15.10;99.90;;;;;;5063960;28;20214;-67
2023/07/20 06:05:21;;;;;;;2.20;1.93;;;15.20;99.90;;;;;;5078142;28;20194;-67
2023/07/20 06:07:48;;;;;;;1.87;1.77;;;15.30;99.90;;;;;;5058275;28;20202;-67
2023/07/20 06:10:16;;;;;;;2.17;1.90;;;15.30;99.90;;;;;;5062940;28;20288;-67
2023/07/20 06:12:43;;;;;;;2.07;1.87;;;15.40;99.90;;;;;;5057482;28;20280;-68
2023/07/20 06:15:26;;;;;;;3.53;1.73;;;15.50;99.90;;;;;;5070482;28;20957;-67
2023/07/20 06:17:53;;;;;;;2.53;1.80;;;15.50;99.90;;;;;;5061284;28;20780;-67
2023/07/20 06:20:21;;;;;;;3.03;1.50;;;15.50;99.90;;;;;;5064437;28;20222;-67
2023/07/20 06:22:48;;;;;;;1.70;1.60;;;15.60;99.90;;;;;;5042723;28;20225;-67
2023/07/20 06:25:14;;;;;;;1.90;1.80;;;15.50;99.90;;;;;;5074165;28;20201;-67
2023/07/20 06:27:42;;;;;;;2.47;1.27;;;15.50;99.90;;;;;;5065929;28;20197;-67
2023/07/20 06:30:11;;;;;;;3.60;1.27;;;15.50;99.90;;;;;;5066022;28;20697;-68
2023/07/20 06:32:38;;;;;;;1.30;1.20;;;15.60;99.90;;;;;;5067925;28;20327;-67
2023/07/20 06:35:06;;;;;;;2.53;1.50;;;15.60;99.90;;;;;;5069630;28;20327;-68
2023/07/20 06:37:34;;;;;;;1.20;1.10;;;15.60;99.90;;;;;;5052571;28;20434;-67
2023/07/20 06:40:01;;;;;;;3.07;1.13;;;15.80;99.90;;;;;;5067101;28;20247;-67
2023/07/20 06:42:28;;;;;;;5.87;1.07;;;15.80;99.90;;;;;;5065030;28;20210;-67
2023/07/20 06:44:54;;;;;;;3.30;1.00;;;15.90;99.90;;;;;;5066032;28;21034;-67
2023/07/20 06:47:21;;;;;;;1.97;1.00;;;15.90;99.90;;;;;;5074285;28;20224;-66
2023/07/20 06:49:48;;;;;;;2.73;1.00;;;16.00;99.90;;;;;;5063073;28;20734;-67
2023/07/20 06:52:15;;;;;;;1.67;1.07;;;16.00;99.90;;;;;;5054678;28;20688;-67
2023/07/20 06:54:43;;;;;;;1.87;0.93;;;16.10;99.90;;;;;;5054858;28;20283;-67
2023/07/20 06:57:10;;;;;;;1.87;1.17;;;16.10;99.90;;;;;;5066142;28;20713;-69
2023/07/20 06:59:37;;;;;;;4.63;1.10;;;16.20;99.90;;;;;;5049840;28;20649;-67
2023/07/20 07:02:06;;;;;;;1.53;1.03;;;16.20;99.90;;;;;;5075996;28;20198;-67
2023/07/20 07:04:33;;;;;;;3.57;1.00;;;16.30;99.90;;;;;;5052839;28;20610;-67
2023/07/20 07:07:00;;;;;;;3.17;1.10;;;16.30;99.90;;;;;;5073306;28;20198;-68
2023/07/20 07:09:27;;;;;;;2.70;0.80;;;16.30;99.90;;;;;;5064472;28;20237;-67
2023/07/20 07:11:56;;;;;;;2.50;1.00;;;16.30;99.90;;;;;;5080831;28;20190;-67
2023/07/20 07:14:22;;;;;;;2.53;1.20;;;16.30;99.90;;;;;;5059461;28;20202;-67
2023/07/20 07:16:49;;;;;;;3.70;1.20;;;16.30;99.90;;;;;;5070827;28;20300;-67
2023/07/20 07:19:16;;;;;;;3.73;1.00;;;16.40;99.90;;;;;;5081107;28;20216;-67
2023/07/20 07:21:43;;;;;;;1.93;1.00;;;16.50;99.90;;;;;;5073466;28;20221;-68
2023/07/20 07:24:10;;;;;;;4.27;1.00;;;16.70;99.90;;;;;;5064699;28;20220;-68
2023/07/20 07:26:37;;;;;;;3.57;1.10;;;16.80;99.90;;;;;;5079476;28;20666;-67
2023/07/20 07:29:05;;;;;;;2.37;0.83;;;16.80;99.90;;;;;;5068707;28;20202;-67
2023/07/20 07:31:36;;;;;;;2.77;1.00;;;16.70;99.90;;;;;;5062210;28;20248;-67
2023/07/20 07:34:03;;;;;;;2.20;0.97;;;16.60;99.90;;;;;;5078753;28;20576;-68
2023/07/20 07:36:30;;;;;;;4.13;1.23;;;16.40;99.90;;;;;;5080042;28;20564;-68
2023/07/20 07:38:57;;;;;;;6.27;1.87;;;16.10;99.90;;;;;;5084204;28;20204;-69
2023/07/20 07:41:23;;;;;;;2.60;1.63;;;16.00;99.90;;;;;;5065962;28;20297;-68
2023/07/20 07:43:50;;;;;;;3.27;1.27;;;15.90;99.90;;;;;;5067198;28;20241;-68
2023/07/20 07:46:19;;;;;;;1.73;1.53;;;15.80;99.90;;;;;;5065155;28;20334;-68
2023/07/20 07:48:45;;;;;;;2.40;1.20;;;15.70;99.90;;;;;;5064069;28;21666;-69
2023/07/20 07:51:13;;;;;;;2.53;1.30;;;15.60;99.90;;;;;;5073418;28;20210;-68
2023/07/20 07:53:40;;;;;;;4.50;1.60;;;15.60;99.90;;;;;;5074653;28;20275;-68
2023/07/20 07:56:08;;;;;;;2.67;1.30;;;15.60;99.90;;;;;;5062641;28;20210;-68
2023/07/20 07:58:35;;;;;;;1.93;1.20;;;15.70;99.90;;;;;;5067443;28;20197;-69
2023/07/20 08:01:02;;;;;;;1.53;1.23;;;15.80;99.90;;;;;;5064712;28;20708;-69
2023/07/20 08:03:30;;;;;;;1.97;1.10;;;15.80;99.90;;;;;;5063114;28;20311;-68
2023/07/20 08:05:58;;;;;;;2.00;1.40;;;15.90;99.90;;;;;;5076655;28;20288;-68
2023/07/20 08:08:25;;;;;;;3.93;1.40;;;16.00;99.90;;;;;;5071956;28;20287;-69
2023/07/20 08:10:55;;;;;;;2.63;1.70;;;16.10;99.90;;;;;;5075699;28;20585;-68
2023/07/20 08:13:22;;;;;;;2.90;1.67;;;16.20;99.90;;;;;;5051633;28;20198;-67
2023/07/20 08:15:51;;;;;;;3.73;1.80;;;16.30;99.90;;;;;;5073690;28;20202;-68
2023/07/20 08:18:19;;;;;;;2.63;1.63;;;16.40;99.90;;;;;;5066545;28;20592;-67
2023/07/20 08:20:49;;;;;;;3.33;1.50;;;16.50;99.90;;;;;;5069833;28;20312;-68
2023/07/20 08:23:16;;;;;;;3.80;1.40;;;16.60;99.90;;;;;;5076613;28;20581;-67
2023/07/20 08:25:44;;;;;;;5.53;1.57;;;16.70;99.90;;;;;;5064469;28;20257;-68
2023/07/20 08:28:11;;;;;;;1.53;1.23;;;16.80;99.90;;;;;;5062718;28;20208;-68
2023/07/20 08:30:43;;;;;;;4.73;1.70;;;16.80;99.90;;;;;;5080419;28;20962;-68
2023/07/20 08:33:11;;;;;;;4.97;1.63;;;17.00;99.90;;;;;;5062863;28;20204;-67
2023/07/20 08:35:40;;;;;;;4.60;1.60;;;17.10;99.90;;;;;;5075368;28;20202;-67
2023/07/20 08:38:08;;;;;;;4.63;1.43;;;17.20;99.90;;;;;;5064983;28;20210;-67
2023/07/20 08:40:40;;;;;;;3.53;1.37;;;17.20;99.90;;;;;;5066171;28;20234;-68
2023/07/20 08:43:07;;;;;;;3.60;1.60;;;17.20;99.90;;;;;;5063548;28;20206;-67
2023/07/20 08:45:36;;;;;;;3.10;1.30;;;17.30;99.90;;;;;;5079210;28;20185;-68
2023/07/20 08:48:06;;;;;;;4.13;1.27;;;17.30;99.90;;;;;;5072235;28;20568;-67
2023/07/20 08:50:33;;;;;;;2.27;1.27;;;17.40;99.90;;;;;;5068955;28;20268;-68
2023/07/20 08:53:00;;;;;;;2.70;1.27;;;17.60;99.90;;;;;;5075349;28;20255;-67
2023/07/20 08:55:30;;;;;;;2.70;1.30;;;17.70;99.90;;;;;;5069406;28;20199;-67
2023/07/20 08:57:58;;;;;;;3.70;1.10;;;17.70;99.90;;;;;;5081314;28;20205;-67
2023/07/20 09:00:26;;;;;;;4.70;1.20;;;17.80;99.90;;;;;;5076765;28;20214;-67
2023/07/20 09:02:55;;;;;;;1.50;1.10;;;18.00;99.90;;;;;;5070739;28;20255;-68
2023/07/20 09:05:23;;;;;;;1.30;0.80;;;18.10;99.90;;;;;;5066631;28;20228;-67
2023/07/20 09:07:50;;;;;;;2.67;0.93;;;18.10;99.90;;;;;;5058437;28;20198;-67
2023/07/20 09:10:17;;;;;;;2.60;0.90;;;18.10;99.90;;;;;;5073351;28;20224;-67
2023/07/20 09:12:45;;;;;;;1.50;0.80;;;18.20;99.90;;;;;;5072742;28;20213;-68
2023/07/20 09:15:13;;;;;;;4.47;1.00;;;18.20;99.90;;;;;;5062448;28;20596;-68
2023/07/20 09:17:40;;;;;;;3.50;0.90;;;18.00;99.90;;;;;;5076276;28;20889;-68
2023/07/20 09:20:10;;;;;;;2.80;0.93;;;17.50;99.90;;;;;;5054345;28;20276;-70
2023/07/20 09:22:39;;;;;;;3.27;1.17;;;16.90;99.90;;;;;;5072623;28;20194;-68
2023/07/20 09:25:08;;;;;;;2.60;0.90;;;16.60;99.90;;;;;;5082128;28;20278;-69
2023/07/20 09:27:40;;;;;;;3.90;1.23;;;16.40;99.90;;;;;;5069758;28;20687;-69
2023/07/20 09:30:11;;;;;;;3.23;1.10;;;16.30;99.90;;;;;;5061531;28;20629;-68
2023/07/20 09:32:43;;;;;;;3.73;1.20;;;16.30;99.90;;;;;;5077274;28;20269;-68
2023/07/20 09:35:14;;;;;;;0.87;0.67;;;16.30;99.90;;;;;;5060274;28;20212;-68
2023/07/20 09:37:46;;;;;;;2.77;0.90;;;16.40;99.90;;;;;;5061330;28;20197;-68
2023/07/20 09:40:17;;;;;;;2.70;0.90;;;16.40;99.90;;;;;;5071420;28;20306;-67
2023/07/20 09:42:44;;;;;;;4.30;1.03;;;16.40;99.90;;;;;;5065642;28;20280;-68
2023/07/20 09:45:12;;;;;;;1.77;0.80;;;16.50;99.90;;;;;;5053125;28;20282;-68
2023/07/20 09:47:40;;;;;;;4.00;1.03;;;16.60;99.90;;;;;;5068078;28;20194;-68
2023/07/20 09:50:10;;;;;;;1.23;0.53;;;16.70;99.90;;;;;;5047703;28;20220;-68
2023/07/20 09:52:41;;;;;;;2.83;0.60;;;16.90;99.90;;;;;;5072461;28;20202;-67
2023/07/20 09:55:09;;;;;;;2.40;0.90;;;17.00;99.90;;;;;;5075958;28;20653;-68
2023/07/20 09:57:36;;;;;;;3.40;0.80;;;17.20;99.90;;;;;;5059892;28;20581;-68
2023/07/20 10:00:11;;;;;;;2.73;0.60;;;17.20;99.90;;;;;;5056474;28;20272;-68
2023/07/20 10:02:43;;;;;;;3.53;0.73;;;17.20;99.90;;;;;;5070816;28;20205;-68
2023/07/20 10:05:12;;;;;;;4.07;1.23;;;17.30;99.90;;;;;;5068987;28;20226;-68
2023/07/20 10:07:44;;;;;;;2.43;0.50;;;17.40;99.90;;;;;;5075805;28;20212;-68
2023/07/20 10:10:14;;;;;;;2.10;0.70;;;17.60;99.90;;;;;;5080251;28;20836;-67
2023/07/20 10:12:43;;;;;;;4.73;0.93;;;17.80;99.90;;;;;;5085137;28;20599;-67
2023/07/20 10:15:14;;;;;;;1.77;0.80;;;18.00;99.90;;;;;;5055353;28;20242;-67
2023/07/20 10:17:53;;;;;;;0.70;0.50;;;18.10;99.90;;;;;;5069754;28;20611;-68
2023/07/20 10:20:21;;;;;;;1.63;0.60;;;18.00;99.90;;;;;;5070666;28;20229;-68
2023/07/20 10:22:50;;;;;;;2.43;0.67;;;17.50;99.90;;;;;;5077626;28;20194;-67
2023/07/20 10:25:21;;;;;;;2.20;0.70;;;17.20;99.90;;;;;;5079469;28;20201;-68
2023/07/20 10:27:49;;;;;;;2.87;0.70;;;17.00;99.90;;;;;;5074448;28;20202;-67
2023/07/20 10:30:17;;;;;;;1.33;0.60;;;16.80;99.90;;;;;;5054873;28;20226;-67
2023/07/20 10:32:46;;;;;;;1.47;0.60;;;16.60;99.90;;;;;;5076231;28;20334;-67
2023/07/20 10:35:14;;;;;;;2.10;0.60;;;16.40;99.90;;;;;;5059026;28;20206;-67
2023/07/20 10:37:49;;;;;;;1.07;0.87;;;16.20;99.90;;;;;;5070037;28;20244;-68
2023/07/20 10:40:33;;;;;;;1.47;0.70;;;16.20;99.90;;;;;;5073519;28;20434;-67
2023/07/20 10:43:06;;;;;;;0.93;0.63;;;16.10;99.90;;;;;;5053765;28;20286;-67
2023/07/20 10:45:49;;;;;;;2.57;0.93;;;16.10;99.90;;;;;;5047689;28;20210;-67
2023/07/20 10:48:19;;;;;;;2.07;0.90;;;16.20;99.90;;;;;;5072033;28;20697;-67
2023/07/20 10:50:47;;;;;;;2.20;0.97;;;16.30;99.90;;;;;;5064002;28;20260;-66
2023/07/20 10:53:16;;;;;;;3.17;0.63;;;16.50;99.90;;;;;;5084029;28;20263;-67
2023/07/20 10:55:46;;;;;;;1.77;0.70;;;16.70;99.90;;;;;;5073125;28;20190;-67
2023/07/20 10:58:14;;;;;;;2.60;0.70;;;16.70;99.90;;;;;;5077307;28;20278;-67
2023/07/20 11:01:01;;;;;;;0.70;0.40;;;16.80;99.90;;;;;;5054226;28;20294;-67
2023/07/20 11:03:31;;;;;;;3.50;0.60;;;16.60;99.90;;;;;;5073983;28;20198;-66
2023/07/20 11:05:59;;;;;;;1.27;0.67;;;16.60;99.90;;;;;;5064665;28;20213;-67
2023/07/20 11:08:44;;;;;;;2.17;0.60;;;16.70;99.90;;;;;;5070572;28;20194;-67
2023/07/20 11:11:24;;;;;;;2.80;0.60;;;16.80;99.90;;;;;;5077313;28;20205;-69
2023/07/20 11:13:55;;;;;;;3.73;0.50;;;17.10;99.90;;;;;;5075328;28;20871;-67
2023/07/20 11:16:36;;;;;;;5.00;0.90;;;17.40;99.90;;;;;;5055430;28;20202;-67
2023/07/20 11:19:05;;;;;;;3.27;0.70;;;17.50;99.90;;;;;;5079868;28;20198;-67
2023/07/20 11:21:37;;;;;;;5.33;0.80;;;17.70;99.90;;;;;;5077818;28;20205;-66
2023/07/20 11:24:06;;;;;;;3.60;0.47;;;17.70;99.90;;;;;;5065203;28;20194;-66
2023/07/20 11:26:41;;;;;;;2.87;0.60;;;17.70;99.90;;;;;;5074000;28;20206;-66
2023/07/20 11:29:08;;;;;;;1.30;0.50;;;17.80;99.90;;;;;;5075231;28;20490;-66
2023/07/20 11:31:36;;;;;;;3.33;0.70;;;17.90;99.90;;;;;;5038837;28;20210;-65
2023/07/20 11:34:05;;;;;;;3.03;0.70;;;18.10;99.90;;;;;;5078435;28;20229;-65
2023/07/20 11:36:32;;;;;;;2.20;0.63;;;18.40;99.90;;;;;;5053447;28;20214;-66
2023/07/20 11:39:04;;;;;;;2.20;0.83;;;18.60;99.90;;;;;;5065054;28;20681;-66
2023/07/20 11:41:31;;;;;;;1.23;0.50;;;18.60;99.90;;;;;;5082628;28;20222;-66
2023/07/20 11:43:58;;;;;;;2.40;0.63;;;18.40;99.90;;;;;;5074771;28;20922;-66
2023/07/20 11:46:25;;;;;;;3.43;0.90;;;18.20;99.90;;;;;;5062221;28;20799;-65
2023/07/20 11:48:58;;;;;;;3.30;0.63;;;17.70;99.90;;;;;;5062332;28;20206;-66
2023/07/20 11:51:27;;;;;;;0.77;0.50;;;17.30;99.90;;;;;;5067301;28;20743;-66
2023/07/20 11:53:54;;;;;;;1.20;0.50;;;16.90;99.90;;;;;;5061175;28;20534;-67
2023/07/20 11:56:21;;;;;;;1.57;0.70;;;16.70;99.90;;;;;;5061020;28;20712;-67
2023/07/20 11:58:48;;;;;;;2.53;0.73;;;16.50;99.90;;;;;;5066734;28;20203;-67
2023/07/20 12:01:15;;;;;;;2.93;0.77;;;16.40;99.90;;;;;;5067951;28;20303;-66
2023/07/20 12:03:43;;;;;;;1.67;0.67;;;16.30;99.90;;;;;;5061310;28;20703;-67
2023/07/20 12:06:11;;;;;;;2.80;0.57;;;16.30;99.90;;;;;;5066077;28;20218;-67
2023/07/20 12:08:41;;;;;;;2.50;1.07;;;16.20;99.90;;;;;;5068175;28;20202;-67
2023/07/20 12:11:08;;;;;;;2.47;0.73;;;16.20;99.90;;;;;;5063820;28;20643;-66
2023/07/20 12:13:39;;;;;;;1.03;0.80;;;16.20;99.90;;;;;;5079370;28;20186;-66
2023/07/20 12:16:15;;;;;;;2.37;0.90;;;16.20;99.90;;;;;;5074950;28;20292;-67
2023/07/20 12:18:43;;;;;;;4.77;1.03;;;16.30;99.90;;;;;;5071625;28;20598;-67
2023/07/20 12:21:10;;;;;;;2.63;0.80;;;16.50;99.90;;;;;;5047862;28;20767;-66
2023/07/20 12:23:40;;;;;;;4.23;1.00;;;16.70;99.90;;;;;;5068708;28;20210;-67
2023/07/20 12:26:09;;;;;;;3.47;0.93;;;16.80;99.90;;;;;;5057741;28;20225;-67
2023/07/20 12:28:40;;;;;;;1.17;0.50;;;17.00;99.90;;;;;;5082517;28;20198;-67
2023/07/20 12:31:08;;;;;;;2.37;0.90;;;17.00;99.90;;;;;;5082258;28;20643;-67
2023/07/20 12:33:34;;;;;;;4.20;1.30;;;17.10;99.90;;;;;;5066665;28;21041;-66
2023/07/20 12:36:02;;;;;;;2.27;0.80;;;17.10;99.90;;;;;;5045948;28;20722;-67
2023/07/20 12:38:30;;;;;;;2.53;0.93;;;17.20;99.90;;;;;;5060938;28;20224;-66
2023/07/20 12:41:00;;;;;;;3.67;1.30;;;17.30;99.90;;;;;;5067221;28;20221;-66
2023/07/20 12:43:27;;;;;;;3.33;1.20;;;17.20;99.90;;;;;;5071123;28;20202;-66
2023/07/20 12:45:54;;;;;;;1.97;0.90;;;17.30;99.90;;;;;;5078866;28;20225;-66
2023/07/20 12:48:21;;;;;;;5.03;1.30;;;17.40;99.90;;;;;;5066418;28;20202;-66
2023/07/20 12:50:48;;;;;;;1.50;0.93;;;17.60;99.90;;;;;;5050326;28;20230;-66
2023/07/20 12:53:16;;;;;;;2.80;0.70;;;17.80;99.90;;;;;;5067712;28;20198;-66
2023/07/20 12:55:43;;;;;;;1.70;0.63;;;18.00;99.90;;;;;;5064358;28;20201;-66